sensor_id;sensor_type;location;lat;lon;timestamp;temperature;humidity
12438;DHT22;6283;51.330;12.374;2023-01-04T00:01:30;6.30;1.00
12438;DHT22;6283;51.330;12.374;2023-01-04T00:03:55;6.30;1.00
12438;DHT22;6283;51.330;12.374;2023-01-04T00:06:21;6.40;1.00
12438;DHT22;6283;51.330;12.374;2023-01-04T00:08:47;6.20;1.00
12438;DHT22;6283;51.330;12.374;2023-01-04T00:11:18;6.40;1.00
12438;DHT22;6283;51.330;12.374;2023-01-04T00:13:45;6.30;1.00
12438;DHT22;6283;51.330;12.374;2023-01-04T00:16:13;6.40;1.00
12438;DHT22;6283;51.330;12.374;2023-01-04T00:18:39;6.20;1.00
12438;DHT22;6283;51.330;12.374;2023-01-04T00:21:13;6.00;1.00
12438;DHT22;6283;51.330;12.374;2023-01-04T00:23:41;6.20;1.00
12438;DHT22;6283;51.330;12.374;2023-01-04T00:26:08;6.00;1.00
12438;DHT22;6283;51.330;12.374;2023-01-04T00:28:34;5.90;1.00
12438;DHT22;6283;51.330;12.374;2023-01-04T00:31:04;6.10;1.00
12438;DHT22;6283;51.330;12.374;2023-01-04T00:33:30;5.90;1.00
12438;DHT22;6283;51.330;12.374;2023-01-04T00:36:04;6.00;1.00
12438;DHT22;6283;51.330;12.374;2023-01-04T00:38:32;5.90;1.00
12438;DHT22;6283;51.330;12.374;2023-01-04T00:40:58;6.00;1.00
12438;DHT22;6283;51.330;12.374;2023-01-04T00:43:24;6.00;1.00
12438;DHT22;6283;51.330;12.374;2023-01-04T00:45:50;6.00;1.00
12438;DHT22;6283;51.330;12.374;2023-01-04T00:48:15;6.00;1.00
12438;DHT22;6283;51.330;12.374;2023-01-04T00:50:45;6.20;1.00
12438;DHT22;6283;51.330;12.374;2023-01-04T00:53:12;5.90;1.00
12438;DHT22;6283;51.330;12.374;2023-01-04T00:55:38;5.90;1.00
12438;DHT22;6283;51.330;12.374;2023-01-04T00:58:04;6.00;1.00
12438;DHT22;6283;51.330;12.374;2023-01-04T01:00:29;5.90;1.00
12438;DHT22;6283;51.330;12.374;2023-01-04T01:02:55;6.10;1.00
12438;DHT22;6283;51.330;12.374;2023-01-04T01:05:20;6.10;1.00
12438;DHT22;6283;51.330;12.374;2023-01-04T01:07:46;6.20;1.00
12438;DHT22;6283;51.330;12.374;2023-01-04T01:10:11;5.90;1.00
12438;DHT22;6283;51.330;12.374;2023-01-04T01:12:37;5.80;1.00
12438;DHT22;6283;51.330;12.374;2023-01-04T01:15:03;5.80;1.00
12438;DHT22;6283;51.330;12.374;2023-01-04T01:17:29;5.80;1.00
12438;DHT22;6283;51.330;12.374;2023-01-04T01:19:54;5.80;1.00
12438;DHT22;6283;51.330;12.374;2023-01-04T01:22:20;5.90;1.00
12438;DHT22;6283;51.330;12.374;2023-01-04T01:24:46;6.10;1.00
12438;DHT22;6283;51.330;12.374;2023-01-04T01:27:11;5.70;1.00
12438;DHT22;6283;51.330;12.374;2023-01-04T01:29:37;5.90;1.00
12438;DHT22;6283;51.330;12.374;2023-01-04T01:32:03;5.90;1.00
12438;DHT22;6283;51.330;12.374;2023-01-04T01:34:28;5.90;1.00
12438;DHT22;6283;51.330;12.374;2023-01-04T01:36:54;5.90;1.00
12438;DHT22;6283;51.330;12.374;2023-01-04T01:39:20;5.90;1.00
12438;DHT22;6283;51.330;12.374;2023-01-04T01:41:46;6.00;1.00
12438;DHT22;6283;51.330;12.374;2023-01-04T01:46:43;5.90;1.00
12438;DHT22;6283;51.330;12.374;2023-01-04T01:51:41;5.80;1.00
12438;DHT22;6283;51.330;12.374;2023-01-04T01:54:13;5.80;1.00
12438;DHT22;6283;51.330;12.374;2023-01-04T01:56:42;6.00;1.00
12438;DHT22;6283;51.330;12.374;2023-01-04T01:59:09;5.90;1.00
12438;DHT22;6283;51.330;12.374;2023-01-04T02:01:35;6.00;1.00
12438;DHT22;6283;51.330;12.374;2023-01-04T02:04:02;5.80;1.00
12438;DHT22;6283;51.330;12.374;2023-01-04T02:06:32;5.80;1.00
12438;DHT22;6283;51.330;12.374;2023-01-04T02:09:00;5.80;1.00
12438;DHT22;6283;51.330;12.374;2023-01-04T02:11:26;5.70;1.00
12438;DHT22;6283;51.330;12.374;2023-01-04T02:13:53;5.80;1.00
12438;DHT22;6283;51.330;12.374;2023-01-04T02:28:01;5.90;1.00
12438;DHT22;6283;51.330;12.374;2023-01-04T02:44:16;5.80;1.00
12438;DHT22;6283;51.330;12.374;2023-01-04T02:47:07;5.80;1.00
12438;DHT22;6283;51.330;12.374;2023-01-04T02:49:33;5.90;1.00
12438;DHT22;6283;51.330;12.374;2023-01-04T02:52:19;5.80;1.00
12438;DHT22;6283;51.330;12.374;2023-01-04T02:54:48;6.00;1.00
12438;DHT22;6283;51.330;12.374;2023-01-04T03:00:16;6.30;1.00
12438;DHT22;6283;51.330;12.374;2023-01-04T03:03:25;6.00;1.00
12438;DHT22;6283;51.330;12.374;2023-01-04T03:06:12;6.10;1.00
12438;DHT22;6283;51.330;12.374;2023-01-04T03:11:24;6.00;1.00
12438;DHT22;6283;51.330;12.374;2023-01-04T03:14:14;6.20;1.00
12438;DHT22;6283;51.330;12.374;2023-01-04T03:16:41;5.90;1.00
12438;DHT22;6283;51.330;12.374;2023-01-04T03:19:09;6.20;1.00
12438;DHT22;6283;51.330;12.374;2023-01-04T03:21:39;5.90;1.00
12438;DHT22;6283;51.330;12.374;2023-01-04T03:24:08;6.10;1.00
12438;DHT22;6283;51.330;12.374;2023-01-04T03:26:59;6.00;1.00
12438;DHT22;6283;51.330;12.374;2023-01-04T03:30:02;6.10;1.00
12438;DHT22;6283;51.330;12.374;2023-01-04T03:33:01;6.10;1.00
12438;DHT22;6283;51.330;12.374;2023-01-04T03:42:04;5.80;1.00
12438;DHT22;6283;51.330;12.374;2023-01-04T03:48:14;6.00;1.00
12438;DHT22;6283;51.330;12.374;2023-01-04T03:51:17;6.00;1.00
12438;DHT22;6283;51.330;12.374;2023-01-04T03:53:51;6.10;1.00
12438;DHT22;6283;51.330;12.374;2023-01-04T03:56:20;5.90;1.00
12438;DHT22;6283;51.330;12.374;2023-01-04T03:58:47;6.00;1.00
12438;DHT22;6283;51.330;12.374;2023-01-04T04:01:14;6.20;1.00
12438;DHT22;6283;51.330;12.374;2023-01-04T04:03:41;6.10;1.00
12438;DHT22;6283;51.330;12.374;2023-01-04T04:06:25;6.30;1.00
12438;DHT22;6283;51.330;12.374;2023-01-04T04:09:09;6.00;1.00
12438;DHT22;6283;51.330;12.374;2023-01-04T04:11:35;6.20;1.00
12438;DHT22;6283;51.330;12.374;2023-01-04T04:14:00;6.20;1.00
12438;DHT22;6283;51.330;12.374;2023-01-04T04:16:27;6.30;1.00
12438;DHT22;6283;51.330;12.374;2023-01-04T04:18:53;6.30;1.00
12438;DHT22;6283;51.330;12.374;2023-01-04T04:21:18;6.10;1.00
12438;DHT22;6283;51.330;12.374;2023-01-04T04:23:44;6.30;1.00
12438;DHT22;6283;51.330;12.374;2023-01-04T04:26:10;6.10;1.00
12438;DHT22;6283;51.330;12.374;2023-01-04T04:28:35;6.40;1.00
12438;DHT22;6283;51.330;12.374;2023-01-04T04:31:01;6.50;1.00
12438;DHT22;6283;51.330;12.374;2023-01-04T04:33:27;6.30;1.00
12438;DHT22;6283;51.330;12.374;2023-01-04T04:35:53;6.50;1.00
12438;DHT22;6283;51.330;12.374;2023-01-04T04:38:20;6.20;1.00
12438;DHT22;6283;51.330;12.374;2023-01-04T04:40:46;6.40;1.00
12438;DHT22;6283;51.330;12.374;2023-01-04T04:43:34;6.40;1.00
12438;DHT22;6283;51.330;12.374;2023-01-04T04:46:01;6.30;1.00
12438;DHT22;6283;51.330;12.374;2023-01-04T04:48:27;6.50;1.00
12438;DHT22;6283;51.330;12.374;2023-01-04T04:50:53;6.20;1.00
12438;DHT22;6283;51.330;12.374;2023-01-04T04:53:18;6.60;1.00
12438;DHT22;6283;51.330;12.374;2023-01-04T04:55:44;6.30;1.00
12438;DHT22;6283;51.330;12.374;2023-01-04T04:58:10;6.30;1.00
12438;DHT22;6283;51.330;12.374;2023-01-04T05:00:35;6.60;1.00
12438;DHT22;6283;51.330;12.374;2023-01-04T05:03:01;6.40;1.00
12438;DHT22;6283;51.330;12.374;2023-01-04T05:05:27;6.50;1.00
12438;DHT22;6283;51.330;12.374;2023-01-04T05:07:53;6.60;1.00
12438;DHT22;6283;51.330;12.374;2023-01-04T05:10:18;6.50;1.00
12438;DHT22;6283;51.330;12.374;2023-01-04T05:12:44;6.90;1.00
12438;DHT22;6283;51.330;12.374;2023-01-04T05:15:33;6.70;1.00
12438;DHT22;6283;51.330;12.374;2023-01-04T05:18:00;6.70;1.00
12438;DHT22;6283;51.330;12.374;2023-01-04T05:20:26;6.70;1.00
12438;DHT22;6283;51.330;12.374;2023-01-04T05:22:51;6.80;1.00
12438;DHT22;6283;51.330;12.374;2023-01-04T05:25:17;6.90;1.00
12438;DHT22;6283;51.330;12.374;2023-01-04T05:27:43;6.80;1.00
12438;DHT22;6283;51.330;12.374;2023-01-04T05:30:10;7.00;1.00
12438;DHT22;6283;51.330;12.374;2023-01-04T05:32:55;7.10;1.00
12438;DHT22;6283;51.330;12.374;2023-01-04T05:35:20;7.30;1.00
12438;DHT22;6283;51.330;12.374;2023-01-04T05:37:46;7.00;1.00
12438;DHT22;6283;51.330;12.374;2023-01-04T05:40:11;7.10;1.00
12438;DHT22;6283;51.330;12.374;2023-01-04T05:42:37;7.20;1.00
12438;DHT22;6283;51.330;12.374;2023-01-04T05:45:03;7.10;1.00
12438;DHT22;6283;51.330;12.374;2023-01-04T05:47:29;7.20;1.00
12438;DHT22;6283;51.330;12.374;2023-01-04T05:49:54;7.30;1.00
12438;DHT22;6283;51.330;12.374;2023-01-04T05:52:20;7.20;1.00
12438;DHT22;6283;51.330;12.374;2023-01-04T05:54:46;7.30;1.00
12438;DHT22;6283;51.330;12.374;2023-01-04T05:57:12;7.40;1.00
12438;DHT22;6283;51.330;12.374;2023-01-04T05:59:38;7.40;1.00
12438;DHT22;6283;51.330;12.374;2023-01-04T06:02:06;7.50;1.00
12438;DHT22;6283;51.330;12.374;2023-01-04T06:04:32;7.50;1.00
12438;DHT22;6283;51.330;12.374;2023-01-04T06:06:58;7.40;1.00
12438;DHT22;6283;51.330;12.374;2023-01-04T06:09:23;7.60;1.00
12438;DHT22;6283;51.330;12.374;2023-01-04T06:11:51;7.80;1.00
12438;DHT22;6283;51.330;12.374;2023-01-04T06:14:16;7.70;1.00
12438;DHT22;6283;51.330;12.374;2023-01-04T06:16:42;7.80;1.00
12438;DHT22;6283;51.330;12.374;2023-01-04T06:19:07;7.60;1.00
12438;DHT22;6283;51.330;12.374;2023-01-04T06:21:33;7.70;1.00
12438;DHT22;6283;51.330;12.374;2023-01-04T06:23:59;7.70;1.00
12438;DHT22;6283;51.330;12.374;2023-01-04T06:26:24;7.80;1.00
12438;DHT22;6283;51.330;12.374;2023-01-04T06:28:50;7.90;1.00
12438;DHT22;6283;51.330;12.374;2023-01-04T06:31:16;7.90;1.00
12438;DHT22;6283;51.330;12.374;2023-01-04T06:33:41;7.90;1.00
12438;DHT22;6283;51.330;12.374;2023-01-04T06:36:07;7.70;1.00
12438;DHT22;6283;51.330;12.374;2023-01-04T06:38:33;7.90;1.00
12438;DHT22;6283;51.330;12.374;2023-01-04T06:40:59;7.90;1.00
12438;DHT22;6283;51.330;12.374;2023-01-04T06:43:25;8.00;1.00
12438;DHT22;6283;51.330;12.374;2023-01-04T06:45:50;8.10;1.00
12438;DHT22;6283;51.330;12.374;2023-01-04T06:48:16;8.00;1.00
12438;DHT22;6283;51.330;12.374;2023-01-04T06:50:42;7.90;1.00
12438;DHT22;6283;51.330;12.374;2023-01-04T06:53:08;7.90;1.00
12438;DHT22;6283;51.330;12.374;2023-01-04T06:55:33;7.90;1.00
12438;DHT22;6283;51.330;12.374;2023-01-04T06:57:59;7.90;1.00
12438;DHT22;6283;51.330;12.374;2023-01-04T07:00:25;7.70;1.00
12438;DHT22;6283;51.330;12.374;2023-01-04T07:02:51;7.80;1.00
12438;DHT22;6283;51.330;12.374;2023-01-04T07:05:17;7.80;1.00
12438;DHT22;6283;51.330;12.374;2023-01-04T07:07:42;7.70;1.00
12438;DHT22;6283;51.330;12.374;2023-01-04T07:10:08;7.40;1.00
12438;DHT22;6283;51.330;12.374;2023-01-04T07:12:35;7.50;1.00
12438;DHT22;6283;51.330;12.374;2023-01-04T07:15:00;7.40;1.00
12438;DHT22;6283;51.330;12.374;2023-01-04T07:17:26;7.40;1.00
12438;DHT22;6283;51.330;12.374;2023-01-04T07:19:52;7.70;1.00
12438;DHT22;6283;51.330;12.374;2023-01-04T07:22:17;7.30;1.00
12438;DHT22;6283;51.330;12.374;2023-01-04T07:24:43;7.40;1.00
12438;DHT22;6283;51.330;12.374;2023-01-04T07:27:09;7.60;1.00
12438;DHT22;6283;51.330;12.374;2023-01-04T07:29:35;7.40;1.00
12438;DHT22;6283;51.330;12.374;2023-01-04T07:32:01;7.30;1.00
12438;DHT22;6283;51.330;12.374;2023-01-04T07:34:27;7.60;1.00
12438;DHT22;6283;51.330;12.374;2023-01-04T07:36:53;7.40;1.00
12438;DHT22;6283;51.330;12.374;2023-01-04T07:39:19;7.70;1.00
12438;DHT22;6283;51.330;12.374;2023-01-04T07:41:46;7.40;1.00
12438;DHT22;6283;51.330;12.374;2023-01-04T07:44:13;7.50;1.00
12438;DHT22;6283;51.330;12.374;2023-01-04T07:46:39;7.70;1.00
12438;DHT22;6283;51.330;12.374;2023-01-04T07:49:05;7.60;1.00
12438;DHT22;6283;51.330;12.374;2023-01-04T07:51:32;7.80;1.00
12438;DHT22;6283;51.330;12.374;2023-01-04T07:53:58;7.50;1.00
12438;DHT22;6283;51.330;12.374;2023-01-04T07:56:24;7.50;1.00
12438;DHT22;6283;51.330;12.374;2023-01-04T07:58:50;7.70;1.00
12438;DHT22;6283;51.330;12.374;2023-01-04T08:01:21;7.60;1.00
12438;DHT22;6283;51.330;12.374;2023-01-04T08:03:47;7.60;1.00
12438;DHT22;6283;51.330;12.374;2023-01-04T08:06:14;7.80;1.00
12438;DHT22;6283;51.330;12.374;2023-01-04T08:08:40;7.60;1.00
12438;DHT22;6283;51.330;12.374;2023-01-04T08:11:08;7.80;1.00
12438;DHT22;6283;51.330;12.374;2023-01-04T08:13:34;7.70;1.00
12438;DHT22;6283;51.330;12.374;2023-01-04T08:16:00;7.70;1.00
12438;DHT22;6283;51.330;12.374;2023-01-04T08:18:26;7.40;1.00
12438;DHT22;6283;51.330;12.374;2023-01-04T08:21:04;7.60;1.00
12438;DHT22;6283;51.330;12.374;2023-01-04T08:23:31;7.40;1.00
12438;DHT22;6283;51.330;12.374;2023-01-04T08:26:11;7.50;1.00
12438;DHT22;6283;51.330;12.374;2023-01-04T08:28:37;7.80;1.00
12438;DHT22;6283;51.330;12.374;2023-01-04T08:31:06;7.50;1.00
12438;DHT22;6283;51.330;12.374;2023-01-04T08:33:32;7.50;1.00
12438;DHT22;6283;51.330;12.374;2023-01-04T08:36:16;7.60;1.00
12438;DHT22;6283;51.330;12.374;2023-01-04T08:38:44;7.70;1.00
12438;DHT22;6283;51.330;12.374;2023-01-04T08:41:10;7.70;1.00
12438;DHT22;6283;51.330;12.374;2023-01-04T08:43:35;7.70;1.00
12438;DHT22;6283;51.330;12.374;2023-01-04T08:46:02;7.70;1.00
12438;DHT22;6283;51.330;12.374;2023-01-04T08:48:29;7.70;1.00
12438;DHT22;6283;51.330;12.374;2023-01-04T08:51:00;7.70;1.00
12438;DHT22;6283;51.330;12.374;2023-01-04T08:53:27;7.80;1.00
12438;DHT22;6283;51.330;12.374;2023-01-04T08:55:53;7.60;1.00
12438;DHT22;6283;51.330;12.374;2023-01-04T08:58:20;8.00;1.00
12438;DHT22;6283;51.330;12.374;2023-01-04T09:00:46;7.70;1.00
12438;DHT22;6283;51.330;12.374;2023-01-04T09:03:12;7.80;1.00
12438;DHT22;6283;51.330;12.374;2023-01-04T09:05:37;7.80;1.00
12438;DHT22;6283;51.330;12.374;2023-01-04T09:08:03;7.90;1.00
12438;DHT22;6283;51.330;12.374;2023-01-04T09:10:29;7.70;1.00
12438;DHT22;6283;51.330;12.374;2023-01-04T09:12:55;7.90;1.00
12438;DHT22;6283;51.330;12.374;2023-01-04T09:15:21;7.90;1.00
12438;DHT22;6283;51.330;12.374;2023-01-04T09:17:48;8.00;1.00
12438;DHT22;6283;51.330;12.374;2023-01-04T09:20:14;8.20;1.00
12438;DHT22;6283;51.330;12.374;2023-01-04T09:22:40;8.20;1.00
12438;DHT22;6283;51.330;12.374;2023-01-04T09:25:06;7.90;1.00
12438;DHT22;6283;51.330;12.374;2023-01-04T09:27:32;8.10;1.00
12438;DHT22;6283;51.330;12.374;2023-01-04T09:29:58;8.20;1.00
12438;DHT22;6283;51.330;12.374;2023-01-04T09:32:25;8.20;1.00
12438;DHT22;6283;51.330;12.374;2023-01-04T09:34:50;7.90;1.00
12438;DHT22;6283;51.330;12.374;2023-01-04T09:37:16;8.10;1.00
12438;DHT22;6283;51.330;12.374;2023-01-04T09:39:42;8.40;1.00
12438;DHT22;6283;51.330;12.374;2023-01-04T09:42:27;8.30;1.00
12438;DHT22;6283;51.330;12.374;2023-01-04T09:44:57;8.30;1.00
12438;DHT22;6283;51.330;12.374;2023-01-04T09:48:11;8.20;1.00
12438;DHT22;6283;51.330;12.374;2023-01-04T09:51:01;8.30;1.00
12438;DHT22;6283;51.330;12.374;2023-01-04T09:53:50;8.20;1.00
12438;DHT22;6283;51.330;12.374;2023-01-04T09:56:28;8.10;1.00
12438;DHT22;6283;51.330;12.374;2023-01-04T09:58:56;8.20;1.00
12438;DHT22;6283;51.330;12.374;2023-01-04T10:01:31;8.50;1.00
12438;DHT22;6283;51.330;12.374;2023-01-04T10:04:12;8.30;1.00
12438;DHT22;6283;51.330;12.374;2023-01-04T10:06:39;8.20;1.00
12438;DHT22;6283;51.330;12.374;2023-01-04T10:09:13;8.30;1.00
12438;DHT22;6283;51.330;12.374;2023-01-04T10:20:52;8.50;1.00
12438;DHT22;6283;51.330;12.374;2023-01-04T10:26:12;8.60;1.00
12438;DHT22;6283;51.330;12.374;2023-01-04T10:31:39;8.60;1.00
12438;DHT22;6283;51.330;12.374;2023-01-04T10:36:41;8.70;1.00
12438;DHT22;6283;51.330;12.374;2023-01-04T10:39:20;8.60;1.00
12438;DHT22;6283;51.330;12.374;2023-01-04T10:42:11;8.50;1.00
12438;DHT22;6283;51.330;12.374;2023-01-04T10:50:02;8.80;1.00
12438;DHT22;6283;51.330;12.374;2023-01-04T10:52:32;8.70;1.00
12438;DHT22;6283;51.330;12.374;2023-01-04T10:55:06;8.80;1.00
12438;DHT22;6283;51.330;12.374;2023-01-04T10:57:42;8.60;1.00
12438;DHT22;6283;51.330;12.374;2023-01-04T11:00:34;8.80;1.00
12438;DHT22;6283;51.330;12.374;2023-01-04T11:06:01;8.70;1.00
12438;DHT22;6283;51.330;12.374;2023-01-04T11:08:36;8.70;1.00
12438;DHT22;6283;51.330;12.374;2023-01-04T11:11:09;8.90;1.00
12438;DHT22;6283;51.330;12.374;2023-01-04T11:13:36;8.70;1.00
12438;DHT22;6283;51.330;12.374;2023-01-04T11:16:04;8.70;1.00
12438;DHT22;6283;51.330;12.374;2023-01-04T11:18:32;8.70;1.00
12438;DHT22;6283;51.330;12.374;2023-01-04T11:21:03;8.80;1.00
12438;DHT22;6283;51.330;12.374;2023-01-04T11:23:30;8.80;1.00
12438;DHT22;6283;51.330;12.374;2023-01-04T11:25:59;8.70;1.00
12438;DHT22;6283;51.330;12.374;2023-01-04T11:28:37;8.70;1.00
12438;DHT22;6283;51.330;12.374;2023-01-04T11:34:00;8.70;1.00
12438;DHT22;6283;51.330;12.374;2023-01-04T11:38:58;8.80;1.00
12438;DHT22;6283;51.330;12.374;2023-01-04T11:41:24;8.60;1.00
12438;DHT22;6283;51.330;12.374;2023-01-04T11:44:02;8.60;1.00
12438;DHT22;6283;51.330;12.374;2023-01-04T11:46:29;8.50;1.00
12438;DHT22;6283;51.330;12.374;2023-01-04T11:48:55;8.50;1.00
12438;DHT22;6283;51.330;12.374;2023-01-04T11:56:31;8.50;1.00
12438;DHT22;6283;51.330;12.374;2023-01-04T11:59:09;8.10;1.00
12438;DHT22;6283;51.330;12.374;2023-01-04T12:01:46;8.20;1.00
12438;DHT22;6283;51.330;12.374;2023-01-04T12:04:22;8.30;1.00
12438;DHT22;6283;51.330;12.374;2023-01-04T12:07:10;8.30;1.00
12438;DHT22;6283;51.330;12.374;2023-01-04T12:09:39;8.20;1.00
12438;DHT22;6283;51.330;12.374;2023-01-04T12:12:06;8.30;1.00
12438;DHT22;6283;51.330;12.374;2023-01-04T12:14:34;8.30;1.00
12438;DHT22;6283;51.330;12.374;2023-01-04T12:17:03;8.30;1.00
12438;DHT22;6283;51.330;12.374;2023-01-04T12:19:34;8.30;1.00
12438;DHT22;6283;51.330;12.374;2023-01-04T12:22:02;8.40;1.00
12438;DHT22;6283;51.330;12.374;2023-01-04T12:24:33;8.50;1.00
12438;DHT22;6283;51.330;12.374;2023-01-04T12:27:00;8.40;1.00
12438;DHT22;6283;51.330;12.374;2023-01-04T12:29:55;8.40;1.00
12438;DHT22;6283;51.330;12.374;2023-01-04T12:34:47;8.50;1.00
12438;DHT22;6283;51.330;12.374;2023-01-04T12:45:40;8.70;1.00
12438;DHT22;6283;51.330;12.374;2023-01-04T12:51:25;8.90;1.00
12438;DHT22;6283;51.330;12.374;2023-01-04T12:56:20;9.10;1.00
12438;DHT22;6283;51.330;12.374;2023-01-04T12:59:08;8.90;1.00
12438;DHT22;6283;51.330;12.374;2023-01-04T13:01:35;8.90;1.00
12438;DHT22;6283;51.330;12.374;2023-01-04T13:04:37;9.00;1.00
12438;DHT22;6283;51.330;12.374;2023-01-04T13:07:16;8.90;1.00
12438;DHT22;6283;51.330;12.374;2023-01-04T13:09:55;9.10;1.00
12438;DHT22;6283;51.330;12.374;2023-01-04T13:15:21;8.90;1.00
12438;DHT22;6283;51.330;12.374;2023-01-04T13:17:49;9.10;1.00
12438;DHT22;6283;51.330;12.374;2023-01-04T13:20:21;9.10;1.00
12438;DHT22;6283;51.330;12.374;2023-01-04T13:22:53;9.20;1.00
12438;DHT22;6283;51.330;12.374;2023-01-04T13:25:21;9.50;1.00
12438;DHT22;6283;51.330;12.374;2023-01-04T13:28:12;9.40;1.00
12438;DHT22;6283;51.330;12.374;2023-01-04T13:30:40;9.40;1.00
12438;DHT22;6283;51.330;12.374;2023-01-04T13:33:08;9.30;1.00
12438;DHT22;6283;51.330;12.374;2023-01-04T13:35:34;9.60;1.00
12438;DHT22;6283;51.330;12.374;2023-01-04T13:38:00;9.60;1.00
12438;DHT22;6283;51.330;12.374;2023-01-04T13:40:31;9.60;1.00
12438;DHT22;6283;51.330;12.374;2023-01-04T13:46:13;9.40;1.00
12438;DHT22;6283;51.330;12.374;2023-01-04T13:48:42;9.80;1.00
12438;DHT22;6283;51.330;12.374;2023-01-04T13:51:12;9.60;1.00
12438;DHT22;6283;51.330;12.374;2023-01-04T13:53:38;9.80;1.00
12438;DHT22;6283;51.330;12.374;2023-01-04T13:56:04;9.90;1.00
12438;DHT22;6283;51.330;12.374;2023-01-04T13:58:32;9.70;1.00
12438;DHT22;6283;51.330;12.374;2023-01-04T14:01:06;9.80;1.00
12438;DHT22;6283;51.330;12.374;2023-01-04T14:03:58;9.80;1.00
12438;DHT22;6283;51.330;12.374;2023-01-04T14:06:30;9.80;1.00
12438;DHT22;6283;51.330;12.374;2023-01-04T14:11:32;9.90;1.00
12438;DHT22;6283;51.330;12.374;2023-01-04T14:16:45;10.00;1.00
12438;DHT22;6283;51.330;12.374;2023-01-04T14:19:41;9.80;1.00
12438;DHT22;6283;51.330;12.374;2023-01-04T14:36:20;9.70;1.00
12438;DHT22;6283;51.330;12.374;2023-01-04T14:44:18;10.00;1.00
12438;DHT22;6283;51.330;12.374;2023-01-04T14:46:49;9.80;1.00
12438;DHT22;6283;51.330;12.374;2023-01-04T14:49:15;9.80;1.00
12438;DHT22;6283;51.330;12.374;2023-01-04T14:51:43;9.90;1.00
12438;DHT22;6283;51.330;12.374;2023-01-04T14:54:11;9.80;1.00
12438;DHT22;6283;51.330;12.374;2023-01-04T14:56:38;9.90;1.00
12438;DHT22;6283;51.330;12.374;2023-01-04T14:59:03;9.80;1.00
12438;DHT22;6283;51.330;12.374;2023-01-04T15:01:29;9.80;1.00
12438;DHT22;6283;51.330;12.374;2023-01-04T15:03:55;9.80;1.00
12438;DHT22;6283;51.330;12.374;2023-01-04T15:06:21;9.90;1.00
12438;DHT22;6283;51.330;12.374;2023-01-04T15:08:47;9.90;1.00
12438;DHT22;6283;51.330;12.374;2023-01-04T15:11:13;9.80;1.00
12438;DHT22;6283;51.330;12.374;2023-01-04T15:13:40;10.00;1.00
12438;DHT22;6283;51.330;12.374;2023-01-04T15:16:06;10.10;1.00
12438;DHT22;6283;51.330;12.374;2023-01-04T15:18:34;9.90;1.00
12438;DHT22;6283;51.330;12.374;2023-01-04T15:21:01;9.90;1.00
12438;DHT22;6283;51.330;12.374;2023-01-04T15:23:27;9.80;1.00
12438;DHT22;6283;51.330;12.374;2023-01-04T15:25:53;9.90;1.00
12438;DHT22;6283;51.330;12.374;2023-01-04T15:28:18;9.80;1.00
12438;DHT22;6283;51.330;12.374;2023-01-04T15:30:46;10.00;1.00
12438;DHT22;6283;51.330;12.374;2023-01-04T15:33:12;9.90;1.00
12438;DHT22;6283;51.330;12.374;2023-01-04T15:35:37;10.20;1.00
12438;DHT22;6283;51.330;12.374;2023-01-04T15:38:03;9.90;1.00
12438;DHT22;6283;51.330;12.374;2023-01-04T15:40:28;9.80;1.00
12438;DHT22;6283;51.330;12.374;2023-01-04T15:42:54;10.30;1.00
12438;DHT22;6283;51.330;12.374;2023-01-04T15:45:23;9.80;1.00
12438;DHT22;6283;51.330;12.374;2023-01-04T15:47:50;9.90;1.00
12438;DHT22;6283;51.330;12.374;2023-01-04T15:50:16;10.20;1.00
12438;DHT22;6283;51.330;12.374;2023-01-04T15:52:42;9.90;1.00
12438;DHT22;6283;51.330;12.374;2023-01-04T15:55:08;9.90;1.00
12438;DHT22;6283;51.330;12.374;2023-01-04T15:57:34;9.80;1.00
12438;DHT22;6283;51.330;12.374;2023-01-04T15:59:59;10.00;1.00
12438;DHT22;6283;51.330;12.374;2023-01-04T16:02:25;9.90;1.00
12438;DHT22;6283;51.330;12.374;2023-01-04T16:04:51;10.00;1.00
12438;DHT22;6283;51.330;12.374;2023-01-04T16:07:17;10.00;1.00
12438;DHT22;6283;51.330;12.374;2023-01-04T16:09:43;10.00;1.00
12438;DHT22;6283;51.330;12.374;2023-01-04T16:12:08;10.00;1.00
12438;DHT22;6283;51.330;12.374;2023-01-04T16:14:52;10.00;1.00
12438;DHT22;6283;51.330;12.374;2023-01-04T16:17:18;9.90;1.00
12438;DHT22;6283;51.330;12.374;2023-01-04T16:19:44;9.90;1.00
12438;DHT22;6283;51.330;12.374;2023-01-04T16:22:09;9.80;1.00
12438;DHT22;6283;51.330;12.374;2023-01-04T16:24:35;10.10;1.00
12438;DHT22;6283;51.330;12.374;2023-01-04T16:27:00;10.00;1.00
12438;DHT22;6283;51.330;12.374;2023-01-04T16:29:26;10.00;1.00
12438;DHT22;6283;51.330;12.374;2023-01-04T16:31:52;10.00;1.00
12438;DHT22;6283;51.330;12.374;2023-01-04T16:34:17;10.10;1.00
12438;DHT22;6283;51.330;12.374;2023-01-04T16:36:43;9.90;1.00
12438;DHT22;6283;51.330;12.374;2023-01-04T16:39:09;9.90;1.00
12438;DHT22;6283;51.330;12.374;2023-01-04T16:41:34;9.90;1.00
12438;DHT22;6283;51.330;12.374;2023-01-04T16:44:03;10.10;1.00
12438;DHT22;6283;51.330;12.374;2023-01-04T16:46:30;9.90;1.00
12438;DHT22;6283;51.330;12.374;2023-01-04T16:49:08;10.00;1.00
12438;DHT22;6283;51.330;12.374;2023-01-04T16:51:35;10.10;1.00
12438;DHT22;6283;51.330;12.374;2023-01-04T16:54:05;10.00;1.00
12438;DHT22;6283;51.330;12.374;2023-01-04T16:56:32;10.10;1.00
12438;DHT22;6283;51.330;12.374;2023-01-04T16:58:58;10.20;1.00
12438;DHT22;6283;51.330;12.374;2023-01-04T17:01:28;10.10;1.00
12438;DHT22;6283;51.330;12.374;2023-01-04T17:03:57;10.20;1.00
12438;DHT22;6283;51.330;12.374;2023-01-04T17:06:28;10.40;1.00
12438;DHT22;6283;51.330;12.374;2023-01-04T17:08:55;10.40;1.00
12438;DHT22;6283;51.330;12.374;2023-01-04T17:11:27;10.40;1.00
12438;DHT22;6283;51.330;12.374;2023-01-04T17:13:54;10.70;1.00
12438;DHT22;6283;51.330;12.374;2023-01-04T17:16:20;10.60;1.00
12438;DHT22;6283;51.330;12.374;2023-01-04T17:18:50;10.60;1.00
12438;DHT22;6283;51.330;12.374;2023-01-04T17:21:19;10.60;1.00
12438;DHT22;6283;51.330;12.374;2023-01-04T17:23:47;10.60;1.00
12438;DHT22;6283;51.330;12.374;2023-01-04T17:26:21;10.50;1.00
12438;DHT22;6283;51.330;12.374;2023-01-04T17:28:48;10.80;1.00
12438;DHT22;6283;51.330;12.374;2023-01-04T17:31:16;10.70;1.00
12438;DHT22;6283;51.330;12.374;2023-01-04T17:33:42;10.60;1.00
12438;DHT22;6283;51.330;12.374;2023-01-04T17:36:10;10.70;1.00
12438;DHT22;6283;51.330;12.374;2023-01-04T17:38:36;10.70;1.00
12438;DHT22;6283;51.330;12.374;2023-01-04T17:41:09;10.80;1.00
12438;DHT22;6283;51.330;12.374;2023-01-04T17:43:36;10.80;1.00
12438;DHT22;6283;51.330;12.374;2023-01-04T17:46:04;10.70;1.00
12438;DHT22;6283;51.330;12.374;2023-01-04T17:48:30;10.70;1.00
12438;DHT22;6283;51.330;12.374;2023-01-04T17:51:07;10.80;1.00
12438;DHT22;6283;51.330;12.374;2023-01-04T17:53:33;10.90;1.00
12438;DHT22;6283;51.330;12.374;2023-01-04T17:56:03;10.80;1.00
12438;DHT22;6283;51.330;12.374;2023-01-04T17:58:29;10.90;1.00
12438;DHT22;6283;51.330;12.374;2023-01-04T18:00:55;10.90;1.00
12438;DHT22;6283;51.330;12.374;2023-01-04T18:03:20;11.00;1.00
12438;DHT22;6283;51.330;12.374;2023-01-04T18:05:50;11.00;1.00
12438;DHT22;6283;51.330;12.374;2023-01-04T18:08:15;10.90;1.00
12438;DHT22;6283;51.330;12.374;2023-01-04T18:10:41;11.10;1.00
12438;DHT22;6283;51.330;12.374;2023-01-04T18:13:07;11.00;1.00
12438;DHT22;6283;51.330;12.374;2023-01-04T18:15:32;10.90;1.00
12438;DHT22;6283;51.330;12.374;2023-01-04T18:17:58;11.10;1.00
12438;DHT22;6283;51.330;12.374;2023-01-04T18:20:25;11.00;1.00
12438;DHT22;6283;51.330;12.374;2023-01-04T18:22:51;10.90;1.00